Archival Weather

Chicago O'Hare International

Chicago, Illinois (KORD)

Report from: Wednesday, February 1, 2023 2:51 PM CST
Current time: Tuesday, February 27, 2024 2:59 AM CST

Current weather – Weather history – Daily summaries
Weather forecast

Temperature-2.8°C (27.0°F)
Wind chill-10.1°C (13.9°F)
Dew point-13.9°C (7.0°F)
Winds 16 kts (8.2 m/s, 18.4 mph) South-Southwest (210°)
Wind gusts 21 kts (10.8 m/s, 24.2 mph)
Visibility10 mi. (16.1 km)
Clouds Few clouds 25,000 ft. (7,620 m)
Altimeter30.24 in.Hg (1024 mB)
Relative humidity42 %
Density altitude-2,561 ft. (-781 m)
Sea-level pressure102.5 kPa (1025 mB, 30.28 in.Hg)
Remarks Automated weather observing station with precipitation discriminator
Pressure falling more slowly
Flight conditions Visual Meteorological Conditions
Raw dataKORD 012051Z 21016G21KT 10SM FEW250 M03/M14 A3024 RMK AO2 SLP253 T10281139 56030
An error has occurred. This application may no longer respond until reloaded. Reload 🗙